createdAt,value
2023-02-22T00:03:16.645Z,60.59
2023-02-22T00:08:19.484Z,60.25
2023-02-22T00:13:23.808Z,60.52
2023-02-22T00:18:28.734Z,60.37
2023-02-22T00:23:32.984Z,60.34
2023-02-22T00:28:37.344Z,60.44
2023-02-22T00:33:41.130Z,60.56
2023-02-22T00:38:43.920Z,60.64
2023-02-22T00:43:49.073Z,60.75
2023-02-22T00:48:51.922Z,60.63
2023-02-22T00:53:54.682Z,60.47
2023-02-22T00:58:58.817Z,60.72
2023-02-22T01:04:01.552Z,60.71
2023-02-22T01:09:05.299Z,60.63
2023-02-22T01:14:09.849Z,60.70
2023-02-22T01:19:12.891Z,60.81
2023-02-22T01:24:16.590Z,60.60
2023-02-22T01:29:22.074Z,60.71
2023-02-22T01:34:25.971Z,60.91
2023-02-22T01:39:28.754Z,60.71
2023-02-22T01:44:36.135Z,60.76
2023-02-22T01:49:44.181Z,60.97
2023-02-22T01:54:51.019Z,60.96
2023-02-22T02:00:01.666Z,60.94
2023-02-22T02:05:08.213Z,60.89
2023-02-22T02:10:14.430Z,61.04
2023-02-22T02:15:26.478Z,61.01
2023-02-22T02:20:35.953Z,60.92
2023-02-22T02:26:11.800Z,61.00
2023-02-22T02:31:47.968Z,61.12
2023-02-22T02:37:02.822Z,61.16
2023-02-22T02:42:12.078Z,60.99
2023-02-22T02:47:20.348Z,61.05
2023-02-22T02:52:27.429Z,61.04
2023-02-22T02:57:30.176Z,61.17
2023-02-22T03:02:46.261Z,61.15
2023-02-22T03:08:02.325Z,61.05
2023-02-22T03:13:11.682Z,61.41
2023-02-22T03:18:22.723Z,61.21
2023-02-22T03:23:32.582Z,61.38
2023-02-22T03:28:37.392Z,61.46
2023-02-22T03:33:44.220Z,61.49
2023-02-22T03:38:50.993Z,61.47
2023-02-22T03:43:59.656Z,61.47
2023-02-22T03:49:08.904Z,61.55
2023-02-22T03:54:16.772Z,61.80
2023-02-22T03:59:26.081Z,61.76
2023-02-22T04:04:29.223Z,61.50
2023-02-22T04:09:33.959Z,61.69
2023-02-22T04:14:36.954Z,61.62
2023-02-22T04:19:39.902Z,62.47
2023-02-22T04:24:45.307Z,62.02
2023-02-22T04:29:48.110Z,62.13
2023-02-22T04:34:51.229Z,62.19
2023-02-22T04:39:55.978Z,62.27
2023-02-22T04:44:58.890Z,61.97
2023-02-22T04:50:02.246Z,61.73
2023-02-22T04:55:08.469Z,61.80
2023-02-22T05:00:18.045Z,61.55
2023-02-22T05:05:22.297Z,61.51
2023-02-22T05:10:26.535Z,61.66
2023-02-22T05:15:29.316Z,61.44
2023-02-22T05:20:34.235Z,61.32
2023-02-22T05:25:38.625Z,61.22
2023-02-22T05:30:41.625Z,61.16
2023-02-22T05:35:44.500Z,61.43
2023-02-22T05:40:48.642Z,61.32
2023-02-22T05:45:51.497Z,61.44
2023-02-22T05:50:54.319Z,61.36
2023-02-22T05:55:58.555Z,61.47
2023-02-22T06:01:03.133Z,61.55
2023-02-22T06:06:06.539Z,61.72
2023-02-22T06:11:10.768Z,61.62
2023-02-22T06:16:13.726Z,61.77
2023-02-22T06:21:17.484Z,61.95
2023-02-22T06:26:22.880Z,62.18
2023-02-22T06:31:25.626Z,62.17
2023-02-22T06:36:28.422Z,62.44
2023-02-22T06:41:32.598Z,62.44
2023-02-22T06:46:35.421Z,62.38
2023-02-22T06:51:38.849Z,62.58
2023-02-22T06:56:42.981Z,62.62
2023-02-22T07:01:45.877Z,62.79
2023-02-22T07:06:49.599Z,62.84
2023-02-22T07:11:54.000Z,62.92
2023-02-22T07:16:56.717Z,62.88
2023-02-22T07:21:59.688Z,63.13
2023-02-22T07:27:03.782Z,63.14
2023-02-22T07:32:06.872Z,63.14
2023-02-22T07:37:09.762Z,63.08
2023-02-22T07:42:14.253Z,63.30
2023-02-22T07:47:17.000Z,63.42
2023-02-22T07:52:19.778Z,63.36
2023-02-22T07:57:24.000Z,63.03
2023-02-22T08:02:27.576Z,56.55
2023-02-22T08:07:30.383Z,58.14
2023-02-22T08:12:34.871Z,59.25
2023-02-22T08:17:38.444Z,59.78
2023-02-22T08:22:44.514Z,57.29
2023-02-22T08:27:49.366Z,56.27
2023-02-22T08:32:52.745Z,55.97
2023-02-22T08:37:57.460Z,55.98
2023-02-22T08:43:02.432Z,56.23
2023-02-22T08:48:05.801Z,56.26
2023-02-22T08:53:09.747Z,56.43
2023-02-22T08:58:14.190Z,55.52
2023-02-22T09:03:17.364Z,56.02
2023-02-22T09:08:20.182Z,56.34
2023-02-22T09:13:24.429Z,56.46
2023-02-22T09:18:42.337Z,56.90
2023-02-22T09:23:48.480Z,57.07
2023-02-22T09:28:52.642Z,57.29
2023-02-22T09:33:55.543Z,57.39
2023-02-22T09:38:59.077Z,57.53
2023-02-22T09:44:17.546Z,57.84
2023-02-22T09:49:24.997Z,58.06
2023-02-22T09:54:34.180Z,57.96
2023-02-22T09:59:43.351Z,58.17
2023-02-22T10:04:52.738Z,58.04
2023-02-22T10:09:57.259Z,58.17
2023-02-22T10:15:29.801Z,58.13
2023-02-22T10:20:43.865Z,58.35
2023-02-22T10:25:53.758Z,58.27
2023-02-22T10:31:04.326Z,58.09
2023-02-22T10:36:16.773Z,58.42
2023-02-22T10:41:27.392Z,58.43
2023-02-22T10:46:34.585Z,58.50
2023-02-22T10:51:39.268Z,58.51
2023-02-22T10:56:48.802Z,58.68
2023-02-22T11:01:53.434Z,58.38
2023-02-22T11:07:10.954Z,58.50
2023-02-22T11:12:20.893Z,58.65
2023-02-22T11:17:31.436Z,58.66
2023-02-22T11:22:41.990Z,58.49
2023-02-22T11:27:46.977Z,58.21
2023-02-22T11:32:56.581Z,58.15
2023-02-22T11:38:12.738Z,57.94
2023-02-22T11:43:19.592Z,58.02
2023-02-22T11:48:23.833Z,58.17
2023-02-22T11:53:32.820Z,57.77
2023-02-22T11:58:45.698Z,57.89
2023-02-22T12:04:17.159Z,57.49
2023-02-22T12:09:28.039Z,57.47
2023-02-22T12:14:41.969Z,57.06
2023-02-22T12:19:50.122Z,57.35
2023-02-22T12:25:09.065Z,57.15
2023-02-22T12:30:20.199Z,57.27
2023-02-22T12:35:27.048Z,57.18
2023-02-22T12:40:36.547Z,57.24
2023-02-22T12:45:46.267Z,56.93
2023-02-22T12:50:55.136Z,57.16
2023-02-22T12:56:06.313Z,56.92
2023-02-22T13:01:20.004Z,57.01
2023-02-22T13:06:37.278Z,56.80
2023-02-22T13:11:48.348Z,56.58
2023-02-22T13:16:58.330Z,56.42
2023-02-22T13:22:07.576Z,56.58
2023-02-22T13:27:15.629Z,57.45
2023-02-22T13:32:30.480Z,58.53
2023-02-22T13:37:56.747Z,59.35
2023-02-22T13:43:16.133Z,60.18
2023-02-22T13:48:45.777Z,59.85
2023-02-22T13:53:56.096Z,60.12
2023-02-22T13:59:02.365Z,60.59
2023-02-22T14:04:22.779Z,60.98
2023-02-22T14:09:46.137Z,62.32
2023-02-22T14:15:29.734Z,62.06
2023-02-22T14:20:36.190Z,61.29
2023-02-22T14:25:43.345Z,53.06
2023-02-22T14:30:46.501Z,57.46
2023-02-22T14:35:51.093Z,58.57
2023-02-22T14:40:58.519Z,59.46
2023-02-22T14:46:05.306Z,59.50
2023-02-22T14:51:21.954Z,59.69
2023-02-22T14:56:36.153Z,59.74
2023-02-22T15:01:50.872Z,59.62
2023-02-22T15:07:00.871Z,59.83
2023-02-22T15:12:22.231Z,59.71
2023-02-22T15:17:25.974Z,59.77
2023-02-22T15:22:35.593Z,59.59
2023-02-22T15:27:45.856Z,59.68
2023-02-22T15:33:03.218Z,59.72
2023-02-22T15:38:19.950Z,59.71
2023-02-22T15:43:28.616Z,59.65
2023-02-22T15:48:33.217Z,59.91
2023-02-22T15:53:41.419Z,59.86
2023-02-22T15:58:48.316Z,59.94
2023-02-22T16:03:54.009Z,59.90
2023-02-22T16:08:59.814Z,60.07
2023-02-22T16:14:06.858Z,60.28
2023-02-22T16:19:33.554Z,60.33
2023-02-22T16:24:37.512Z,60.43
2023-02-22T16:29:41.857Z,60.49
2023-02-22T16:34:44.732Z,60.69
2023-02-22T16:39:47.558Z,60.54
2023-02-22T16:44:52.518Z,60.55
2023-02-22T16:49:57.018Z,60.58
2023-02-22T16:55:01.880Z,60.70
2023-02-22T17:00:09.721Z,61.15
2023-02-22T17:05:15.102Z,61.76
2023-02-22T17:10:18.925Z,62.01
2023-02-22T17:15:25.618Z,62.41
2023-02-22T17:20:30.942Z,62.40
2023-02-22T17:25:37.576Z,62.72
2023-02-22T17:30:43.965Z,62.58
2023-02-22T17:35:47.905Z,62.28
2023-02-22T17:40:51.994Z,62.11
2023-02-22T17:45:56.820Z,62.11
2023-02-22T17:50:59.669Z,61.92
2023-02-22T17:56:06.566Z,61.99
2023-02-22T18:01:20.961Z,62.16
2023-02-22T18:06:28.278Z,61.96
2023-02-22T18:11:32.644Z,61.93
2023-02-22T18:16:38.925Z,62.13
2023-02-22T18:21:41.746Z,61.85
2023-02-22T18:26:44.565Z,62.03
2023-02-22T18:31:48.758Z,62.01
2023-02-22T18:36:51.701Z,62.04
2023-02-22T18:41:54.519Z,62.01
2023-02-22T18:46:58.714Z,62.03
2023-02-22T18:52:01.594Z,62.22
2023-02-22T18:57:04.430Z,62.14
2023-02-22T19:02:13.642Z,61.83
2023-02-22T19:07:18.247Z,62.00
2023-02-22T19:12:21.194Z,61.88
2023-02-22T19:17:26.497Z,61.91
2023-02-22T19:22:32.743Z,61.92
2023-02-22T19:27:35.606Z,61.66
2023-02-22T19:32:44.612Z,61.77
2023-02-22T19:37:48.055Z,61.86
2023-02-22T19:42:53.144Z,61.60
2023-02-22T19:47:57.583Z,61.53
2023-02-22T19:53:00.602Z,61.68
2023-02-22T19:58:03.536Z,61.65
2023-02-22T20:03:09.231Z,61.52
2023-02-22T20:08:12.049Z,61.56
2023-02-22T20:13:16.995Z,61.60
2023-02-22T20:18:23.001Z,61.67
2023-02-22T20:23:26.047Z,61.51
2023-02-22T20:28:30.039Z,61.57
2023-02-22T20:33:34.556Z,61.56
2023-02-22T20:38:38.061Z,61.47
2023-02-22T20:43:41.195Z,61.42
2023-02-22T20:48:45.890Z,61.26
2023-02-22T20:53:48.943Z,61.52
2023-02-22T20:58:52.042Z,61.37
2023-02-22T21:04:00.415Z,61.22
2023-02-22T21:09:07.181Z,61.19
2023-02-22T21:14:12.350Z,61.07
2023-02-22T21:19:25.179Z,61.00
2023-02-22T21:24:29.783Z,60.90
2023-02-22T21:29:35.345Z,61.04
2023-02-22T21:34:40.347Z,60.58
2023-02-22T21:39:47.457Z,60.88
2023-02-22T21:44:54.390Z,61.16
2023-02-22T21:49:58.889Z,61.06
2023-02-22T21:55:01.658Z,60.97
2023-02-22T22:00:12.861Z,61.19
2023-02-22T22:05:31.507Z,61.47
2023-02-22T22:10:34.540Z,61.40
2023-02-22T22:15:37.522Z,61.70
2023-02-22T22:20:44.651Z,61.42
2023-02-22T22:25:51.000Z,61.71
2023-02-22T22:30:53.915Z,61.78
2023-02-22T22:35:59.259Z,61.76
2023-02-22T22:41:05.500Z,61.94
2023-02-22T22:46:09.498Z,61.99
2023-02-22T22:51:15.154Z,61.66
2023-02-22T22:56:19.561Z,62.06
2023-02-22T23:01:27.091Z,61.81
2023-02-22T23:06:33.704Z,61.88
2023-02-22T23:11:36.498Z,61.78
2023-02-22T23:16:39.783Z,62.00
2023-02-22T23:21:44.520Z,61.69
2023-02-22T23:26:49.383Z,61.71
2023-02-22T23:31:54.332Z,62.00
2023-02-22T23:36:58.593Z,61.90
2023-02-22T23:42:02.924Z,61.66
2023-02-22T23:47:05.840Z,61.78
2023-02-22T23:52:13.232Z,61.95
2023-02-22T23:57:17.498Z,61.92
